createdAt,value
2022-08-29T00:00:47.801Z,68.14
2022-08-29T00:03:55.568Z,67.98
2022-08-29T00:07:01.711Z,68.25
2022-08-29T00:10:10.734Z,68.49
2022-08-29T00:13:17.531Z,68.47
2022-08-29T00:16:23.953Z,68.77
2022-08-29T00:19:30.813Z,68.80
2022-08-29T00:22:37.096Z,68.56
2022-08-29T00:25:43.334Z,68.49
2022-08-29T00:28:49.231Z,68.41
2022-08-29T00:31:53.644Z,68.39
2022-08-29T00:34:59.569Z,68.48
2022-08-29T00:38:05.457Z,68.38
2022-08-29T00:41:11.578Z,68.43
2022-08-29T00:44:18.090Z,68.04
2022-08-29T00:47:37.783Z,68.13
2022-08-29T00:50:48.596Z,68.18
2022-08-29T00:54:00.797Z,68.03
2022-08-29T00:57:07.894Z,67.73
2022-08-29T01:00:17.734Z,67.57
2022-08-29T01:03:24.382Z,67.62
2022-08-29T01:06:30.942Z,67.68
2022-08-29T01:09:39.538Z,67.94
2022-08-29T01:12:46.053Z,67.86
2022-08-29T01:15:52.907Z,67.69
2022-08-29T01:19:04.454Z,67.70
2022-08-29T01:22:22.362Z,67.72
2022-08-29T01:25:32.421Z,67.96
2022-08-29T01:28:42.526Z,68.27
2022-08-29T01:31:57.430Z,68.04
2022-08-29T01:35:02.744Z,68.13
2022-08-29T01:38:08.866Z,68.17
2022-08-29T01:41:18.141Z,67.99
2022-08-29T01:44:26.724Z,67.99
2022-08-29T01:47:35.658Z,68.24
2022-08-29T01:50:41.799Z,68.36
2022-08-29T01:53:48.270Z,68.04
2022-08-29T01:56:55.470Z,68.30
2022-08-29T02:00:03.008Z,68.30
2022-08-29T02:03:09.242Z,68.56
2022-08-29T02:06:15.405Z,68.36
2022-08-29T02:09:21.503Z,68.61
2022-08-29T02:12:27.723Z,68.80
2022-08-29T02:15:34.151Z,68.77
2022-08-29T02:18:40.712Z,68.82
2022-08-29T02:21:46.890Z,69.00
2022-08-29T02:24:53.105Z,69.02
2022-08-29T02:27:59.546Z,68.83
2022-08-29T02:31:06.595Z,68.76
2022-08-29T02:34:13.207Z,68.65
2022-08-29T02:37:19.681Z,68.48
2022-08-29T02:40:32.044Z,68.61
2022-08-29T02:43:38.402Z,68.62
2022-08-29T02:46:44.648Z,68.62
2022-08-29T02:49:50.792Z,68.68
2022-08-29T02:52:57.255Z,68.52
2022-08-29T02:56:03.516Z,68.44
2022-08-29T02:59:10.030Z,68.35
2022-08-29T03:02:16.334Z,68.43
2022-08-29T03:05:25.073Z,68.40
2022-08-29T03:08:31.741Z,68.40
2022-08-29T03:11:37.886Z,68.09
2022-08-29T03:14:44.117Z,68.22
2022-08-29T03:17:50.388Z,68.11
2022-08-29T03:20:56.594Z,68.02
2022-08-29T03:24:02.734Z,67.94
2022-08-29T03:27:09.376Z,67.93
2022-08-29T03:30:17.677Z,67.72
2022-08-29T03:33:23.818Z,67.83
2022-08-29T03:36:29.996Z,67.88
2022-08-29T03:39:38.215Z,67.91
2022-08-29T03:42:44.632Z,67.69
2022-08-29T03:45:51.005Z,67.64
2022-08-29T03:48:57.205Z,67.60
2022-08-29T03:52:04.009Z,67.75
2022-08-29T03:55:11.693Z,67.91
2022-08-29T03:58:17.735Z,68.00
2022-08-29T04:01:26.985Z,68.19
2022-08-29T04:04:50.487Z,68.24
2022-08-29T04:07:58.642Z,68.35
2022-08-29T04:11:09.815Z,68.35
2022-08-29T04:14:16.023Z,68.81
2022-08-29T04:17:22.183Z,68.91
2022-08-29T04:20:30.589Z,68.99
2022-08-29T04:23:38.844Z,69.16
2022-08-29T04:26:45.154Z,69.29
2022-08-29T04:29:51.251Z,69.39
2022-08-29T04:32:57.618Z,69.23
2022-08-29T04:36:06.658Z,69.24
2022-08-29T04:39:13.328Z,69.17
2022-08-29T04:42:20.418Z,69.11
2022-08-29T04:45:27.034Z,69.02
2022-08-29T04:48:33.262Z,69.19
2022-08-29T04:51:39.526Z,69.23
2022-08-29T04:54:45.614Z,69.25
2022-08-29T04:57:53.426Z,69.25
2022-08-29T05:00:59.885Z,69.51
2022-08-29T05:04:07.341Z,69.42
2022-08-29T05:07:15.514Z,69.41
2022-08-29T05:10:23.259Z,69.21
2022-08-29T05:13:29.636Z,69.29
2022-08-29T05:16:37.445Z,69.27
2022-08-29T05:19:45.057Z,69.33
2022-08-29T05:22:51.642Z,69.28
2022-08-29T05:26:00.694Z,69.55
2022-08-29T05:29:08.548Z,69.40
2022-08-29T05:32:17.638Z,69.35
2022-08-29T05:35:24.353Z,69.48
2022-08-29T05:38:30.570Z,69.59
2022-08-29T05:41:38.612Z,69.67
2022-08-29T05:44:45.086Z,69.65
2022-08-29T05:47:51.529Z,69.64
2022-08-29T05:50:57.929Z,69.50
2022-08-29T05:54:04.039Z,69.65
2022-08-29T05:57:14.186Z,69.42
2022-08-29T06:00:24.101Z,69.33
2022-08-29T06:03:30.654Z,69.23
2022-08-29T06:06:36.986Z,69.47
2022-08-29T06:09:44.571Z,69.46
2022-08-29T06:12:50.837Z,69.42
2022-08-29T06:15:57.514Z,69.45
2022-08-29T06:19:03.739Z,69.25
2022-08-29T06:22:11.754Z,69.37
2022-08-29T06:25:37.972Z,69.23
2022-08-29T06:28:46.494Z,69.42
2022-08-29T06:31:52.699Z,68.92
2022-08-29T06:34:59.014Z,69.01
2022-08-29T06:38:05.246Z,68.91
2022-08-29T06:41:14.451Z,68.96
2022-08-29T06:44:21.559Z,69.24
2022-08-29T06:47:27.678Z,69.27
2022-08-29T06:50:33.850Z,69.02
2022-08-29T06:53:41.395Z,69.14
2022-08-29T06:56:48.195Z,69.08
2022-08-29T06:59:54.601Z,69.01
2022-08-29T07:03:01.069Z,68.95
2022-08-29T07:06:07.558Z,68.97
2022-08-29T07:09:14.816Z,69.04
2022-08-29T07:12:21.041Z,69.21
2022-08-29T07:15:33.103Z,69.05
2022-08-29T07:18:39.252Z,69.17
2022-08-29T07:21:45.367Z,69.10
2022-08-29T07:24:51.557Z,68.93
2022-08-29T07:27:57.717Z,68.74
2022-08-29T07:31:03.947Z,68.88
2022-08-29T07:34:10.222Z,68.75
2022-08-29T07:37:16.371Z,68.39
2022-08-29T07:40:23.058Z,68.31
2022-08-29T07:43:29.646Z,68.30
2022-08-29T07:46:35.919Z,68.29
2022-08-29T07:49:42.209Z,68.39
2022-08-29T07:52:48.726Z,68.24
2022-08-29T07:55:54.885Z,68.28
2022-08-29T07:59:02.075Z,68.20
2022-08-29T08:02:08.374Z,68.10
2022-08-29T08:05:14.734Z,68.29
2022-08-29T08:08:21.141Z,68.02
2022-08-29T08:11:28.433Z,67.69
2022-08-29T08:14:35.378Z,67.93
2022-08-29T08:17:44.104Z,67.49
2022-08-29T08:20:50.661Z,67.00
2022-08-29T08:23:57.118Z,66.94
2022-08-29T08:27:03.592Z,66.71
2022-08-29T08:30:11.856Z,66.32
2022-08-29T08:33:17.907Z,66.70
2022-08-29T08:36:26.874Z,66.00
2022-08-29T08:39:33.086Z,65.58
2022-08-29T08:42:43.435Z,65.22
2022-08-29T08:45:50.056Z,64.89
2022-08-29T08:48:58.424Z,64.83
2022-08-29T08:52:07.875Z,64.40
2022-08-29T08:55:24.051Z,63.08
2022-08-29T08:58:35.637Z,63.70
2022-08-29T09:01:45.433Z,63.25
2022-08-29T09:05:01.394Z,63.43
2022-08-29T09:08:15.270Z,62.65
2022-08-29T09:11:30.142Z,61.36
2022-08-29T09:14:59.988Z,60.44
2022-08-29T09:18:13.536Z,59.12
2022-08-29T09:21:40.634Z,58.39
2022-08-29T09:24:51.239Z,59.21
2022-08-29T09:27:58.339Z,61.95
2022-08-29T09:31:26.519Z,61.34
2022-08-29T09:35:04.856Z,60.33
2022-08-29T09:38:08.083Z,59.64
2022-08-29T09:41:28.221Z,58.32
2022-08-29T09:44:38.734Z,58.86
2022-08-29T09:47:45.469Z,60.30
2022-08-29T09:50:51.643Z,62.55
2022-08-29T09:54:15.169Z,62.68
2022-08-29T09:57:27.670Z,58.91
2022-08-29T10:00:38.174Z,57.82
2022-08-29T10:03:55.253Z,58.73
2022-08-29T10:07:12.122Z,60.13
2022-08-29T10:10:21.827Z,61.17
2022-08-29T10:13:34.307Z,60.78
2022-08-29T10:16:52.986Z,60.11
2022-08-29T10:19:59.819Z,57.92
2022-08-29T10:23:10.940Z,57.88
2022-08-29T10:26:27.653Z,57.25
2022-08-29T10:29:58.229Z,58.31
2022-08-29T10:33:21.403Z,57.64
2022-08-29T10:36:33.966Z,58.19
2022-08-29T10:39:47.443Z,57.35
2022-08-29T10:42:59.585Z,57.96
2022-08-29T10:46:18.957Z,57.23
2022-08-29T10:49:35.804Z,58.63
2022-08-29T10:52:53.370Z,58.64
2022-08-29T10:56:06.665Z,57.99
2022-08-29T10:59:21.564Z,56.60
2022-08-29T11:02:32.436Z,55.82
2022-08-29T11:05:44.512Z,56.57
2022-08-29T11:08:57.694Z,55.47
2022-08-29T11:12:17.359Z,56.29
2022-08-29T11:15:28.531Z,57.49
2022-08-29T11:18:41.124Z,57.08
2022-08-29T11:21:52.770Z,56.77
2022-08-29T11:25:09.389Z,56.83
2022-08-29T11:28:23.803Z,56.64
2022-08-29T11:31:50.082Z,56.69
2022-08-29T11:35:10.003Z,56.86
2022-08-29T11:38:40.643Z,56.91
2022-08-29T11:41:50.048Z,56.11
2022-08-29T11:44:59.774Z,55.14
2022-08-29T11:48:21.983Z,56.01
2022-08-29T11:51:36.165Z,56.89
2022-08-29T11:55:28.681Z,56.06
2022-08-29T11:58:50.487Z,56.34
2022-08-29T12:02:02.241Z,56.33
2022-08-29T12:05:11.025Z,56.57
2022-08-29T12:08:36.833Z,57.27
2022-08-29T12:12:21.431Z,55.89
2022-08-29T12:15:59.744Z,55.73
2022-08-29T12:19:06.160Z,56.15
2022-08-29T12:22:22.243Z,55.91
2022-08-29T12:29:22.151Z,56.39
2022-08-29T12:32:44.344Z,56.45
2022-08-29T12:36:12.657Z,55.53
2022-08-29T12:39:33.261Z,55.39
2022-08-29T12:42:49.563Z,53.85
2022-08-29T12:45:59.111Z,53.25
2022-08-29T12:49:16.379Z,53.10
2022-08-29T12:52:29.585Z,53.34
2022-08-29T12:55:40.853Z,53.03
2022-08-29T12:58:55.711Z,52.95
2022-08-29T13:02:03.099Z,53.03
2022-08-29T13:05:26.904Z,53.54
2022-08-29T13:08:38.269Z,53.17
2022-08-29T13:11:44.406Z,53.74
2022-08-29T13:14:56.394Z,54.67
2022-08-29T13:18:03.234Z,53.11
2022-08-29T13:21:14.894Z,52.90
2022-08-29T13:24:22.180Z,52.28
2022-08-29T13:27:28.413Z,53.20
2022-08-29T13:30:34.538Z,52.63
2022-08-29T13:34:01.119Z,53.32
2022-08-29T13:37:28.657Z,53.55
2022-08-29T13:40:44.101Z,53.55
2022-08-29T13:43:51.584Z,53.26
2022-08-29T13:47:01.508Z,53.04
2022-08-29T13:50:11.534Z,52.59
2022-08-29T13:53:17.895Z,52.88
2022-08-29T13:56:32.284Z,54.04
2022-08-29T13:59:40.035Z,54.10
2022-08-29T14:02:46.354Z,54.77
2022-08-29T14:05:56.655Z,54.82
2022-08-29T14:09:03.290Z,52.90
2022-08-29T14:12:11.093Z,52.19
2022-08-29T14:15:18.923Z,51.87
2022-08-29T14:18:25.055Z,52.60
2022-08-29T14:21:31.230Z,52.24
2022-08-29T14:24:37.831Z,53.23
2022-08-29T14:27:44.792Z,53.23
2022-08-29T14:30:51.846Z,52.83
2022-08-29T14:33:58.118Z,52.74
2022-08-29T14:37:04.955Z,52.41
2022-08-29T14:40:12.340Z,53.21
2022-08-29T14:43:18.617Z,53.51
2022-08-29T14:46:24.642Z,53.78
2022-08-29T14:49:30.794Z,53.56
2022-08-29T14:52:37.255Z,53.70
2022-08-29T14:55:44.059Z,54.21
2022-08-29T14:58:50.259Z,54.12
2022-08-29T15:01:56.521Z,53.76
2022-08-29T15:05:02.740Z,53.45
2022-08-29T15:08:10.462Z,53.93
2022-08-29T15:11:21.791Z,52.95
2022-08-29T15:14:27.935Z,53.61
2022-08-29T15:17:34.319Z,53.99
2022-08-29T15:20:43.746Z,53.84
2022-08-29T15:23:52.570Z,53.40
2022-08-29T15:26:59.520Z,54.54
2022-08-29T15:30:06.473Z,54.47
2022-08-29T15:33:12.605Z,54.15
2022-08-29T15:36:18.787Z,53.74
2022-08-29T15:39:25.578Z,54.27
2022-08-29T15:42:34.296Z,54.67
2022-08-29T15:45:40.565Z,54.83
2022-08-29T15:48:47.662Z,54.24
2022-08-29T15:51:54.161Z,54.56
2022-08-29T15:55:00.361Z,54.86
2022-08-29T15:58:06.503Z,55.21
2022-08-29T16:01:12.834Z,54.78
2022-08-29T16:04:21.647Z,55.05
2022-08-29T16:07:29.038Z,54.93
2022-08-29T16:10:36.511Z,55.53
2022-08-29T16:13:42.685Z,55.73
2022-08-29T16:16:49.503Z,56.27
2022-08-29T16:19:55.662Z,56.71
2022-08-29T16:23:02.411Z,56.65
2022-08-29T16:26:08.773Z,56.05
2022-08-29T16:29:14.981Z,56.47
2022-08-29T16:32:27.162Z,56.82
2022-08-29T16:35:33.253Z,56.85
2022-08-29T16:38:40.306Z,57.33
2022-08-29T16:41:47.161Z,57.88
2022-08-29T16:44:53.487Z,58.12
2022-08-29T16:47:59.925Z,58.64
2022-08-29T16:51:06.214Z,58.51
2022-08-29T16:54:12.872Z,58.58
2022-08-29T16:57:18.910Z,58.71
2022-08-29T17:00:25.526Z,59.09
2022-08-29T17:03:31.716Z,59.49
2022-08-29T17:06:38.738Z,59.87
2022-08-29T17:09:43.705Z,60.02
2022-08-29T17:12:48.660Z,60.01
2022-08-29T17:15:53.570Z,60.18
2022-08-29T17:19:00.079Z,60.65
2022-08-29T17:22:08.293Z,60.65
2022-08-29T17:25:14.623Z,60.79
2022-08-29T17:28:21.260Z,61.08
2022-08-29T17:31:27.427Z,61.81
2022-08-29T17:34:33.646Z,64.12
2022-08-29T17:37:40.378Z,64.74
2022-08-29T17:40:46.719Z,63.65
2022-08-29T17:43:54.321Z,62.82
2022-08-29T17:47:00.402Z,62.21
2022-08-29T17:50:07.832Z,61.53
2022-08-29T17:53:14.287Z,61.21
2022-08-29T17:56:22.553Z,60.25
2022-08-29T17:59:33.901Z,60.64
2022-08-29T18:02:40.385Z,61.49
2022-08-29T18:05:46.667Z,62.12
2022-08-29T18:08:52.846Z,63.95
2022-08-29T18:11:59.654Z,64.26
2022-08-29T18:15:07.450Z,63.42
2022-08-29T18:18:13.722Z,62.66
2022-08-29T18:21:20.222Z,62.00
2022-08-29T18:24:26.439Z,61.57
2022-08-29T18:27:33.552Z,61.26
2022-08-29T18:30:39.950Z,61.06
2022-08-29T18:34:00.226Z,60.86
2022-08-29T18:37:07.551Z,60.83
2022-08-29T18:40:14.802Z,60.65
2022-08-29T18:43:21.578Z,60.63
2022-08-29T18:46:27.939Z,60.50
2022-08-29T18:49:51.628Z,59.88
2022-08-29T18:52:57.979Z,60.18
2022-08-29T18:56:05.341Z,61.40
2022-08-29T18:59:12.334Z,63.56
2022-08-29T19:02:18.548Z,63.89
2022-08-29T19:05:26.441Z,63.29
2022-08-29T19:08:32.526Z,62.92
2022-08-29T19:11:38.686Z,62.78
2022-08-29T19:15:00.870Z,62.38
2022-08-29T19:18:08.913Z,62.29
2022-08-29T19:21:15.246Z,61.84
2022-08-29T19:24:21.519Z,61.83
2022-08-29T19:27:42.697Z,61.59
2022-08-29T19:30:50.832Z,62.13
2022-08-29T19:33:57.249Z,61.94
2022-08-29T19:37:05.406Z,62.11
2022-08-29T19:40:18.279Z,62.53
2022-08-29T19:43:25.506Z,63.26
2022-08-29T19:46:32.498Z,63.50
2022-08-29T19:49:43.412Z,63.93
2022-08-29T19:52:52.195Z,63.65
2022-08-29T19:55:58.914Z,63.51
2022-08-29T19:59:06.856Z,63.16
2022-08-29T20:02:13.838Z,62.53
2022-08-29T20:05:20.582Z,62.51
2022-08-29T20:08:29.246Z,62.21
2022-08-29T20:11:43.945Z,62.00
2022-08-29T20:14:52.746Z,61.80
2022-08-29T20:17:59.843Z,61.44
2022-08-29T20:21:06.342Z,61.46
2022-08-29T20:24:15.582Z,61.66
2022-08-29T20:27:22.810Z,61.68
2022-08-29T20:30:31.734Z,61.78
2022-08-29T20:33:41.296Z,62.06
2022-08-29T20:37:05.405Z,61.85
2022-08-29T20:40:13.626Z,61.86
2022-08-29T20:43:20.627Z,61.99
2022-08-29T20:46:28.550Z,61.86
2022-08-29T20:49:35.546Z,61.89
2022-08-29T20:52:41.714Z,62.17
2022-08-29T20:55:47.898Z,62.12
2022-08-29T20:58:54.026Z,62.51
2022-08-29T21:02:00.897Z,62.43
2022-08-29T21:05:25.773Z,62.14
2022-08-29T21:08:33.932Z,62.39
2022-08-29T21:11:40.163Z,62.40
2022-08-29T21:14:46.875Z,62.13
2022-08-29T21:17:53.081Z,62.03
2022-08-29T21:20:59.249Z,61.99
2022-08-29T21:24:07.308Z,62.10
2022-08-29T21:27:13.449Z,62.19
2022-08-29T21:30:19.987Z,62.21
2022-08-29T21:33:26.295Z,61.92
2022-08-29T21:36:32.531Z,61.74
2022-08-29T21:39:38.679Z,61.61
2022-08-29T21:42:44.842Z,61.50
2022-08-29T21:45:51.606Z,61.53
2022-08-29T21:49:01.061Z,61.41
2022-08-29T21:52:07.495Z,61.38
2022-08-29T21:55:14.086Z,61.41
2022-08-29T21:58:20.639Z,61.29
2022-08-29T22:01:30.070Z,61.32
2022-08-29T22:04:36.243Z,61.21
2022-08-29T22:07:43.060Z,61.39
2022-08-29T22:10:49.550Z,61.62
2022-08-29T22:13:56.911Z,61.44
2022-08-29T22:17:03.592Z,61.26
2022-08-29T22:20:08.974Z,61.05
2022-08-29T22:23:19.848Z,61.16
2022-08-29T22:26:26.911Z,61.27
2022-08-29T22:29:33.624Z,61.62
2022-08-29T22:32:40.059Z,61.48
2022-08-29T22:35:46.796Z,61.45
2022-08-29T22:38:55.400Z,61.99
2022-08-29T22:42:03.100Z,62.21
2022-08-29T22:45:12.158Z,61.80
2022-08-29T22:48:19.514Z,61.69
2022-08-29T22:51:27.839Z,61.61
2022-08-29T22:54:36.970Z,61.67
2022-08-29T22:57:45.479Z,61.62
2022-08-29T23:00:51.642Z,61.68
2022-08-29T23:03:59.305Z,61.74
2022-08-29T23:07:05.758Z,61.60
2022-08-29T23:10:14.264Z,61.59
2022-08-29T23:13:20.479Z,61.72
2022-08-29T23:16:27.706Z,62.04
2022-08-29T23:19:34.127Z,62.99
2022-08-29T23:22:42.951Z,64.45
2022-08-29T23:25:49.442Z,64.57
2022-08-29T23:28:56.190Z,64.71
2022-08-29T23:32:02.222Z,65.04
2022-08-29T23:35:07.691Z,64.84
2022-08-29T23:38:13.853Z,64.55
2022-08-29T23:41:22.145Z,63.62
2022-08-29T23:44:28.342Z,63.36
2022-08-29T23:47:35.439Z,63.28
2022-08-29T23:50:41.655Z,63.26
2022-08-29T23:53:53.599Z,63.45
2022-08-29T23:56:59.999Z,64.02
